»·PEaware :: WAT202 KPDX-KRNO

WAT202 :: KPDX-KRNO

FLIGHT INFORMATION

Flight Status: Arrived
Operator:
Walker Air Transport
More flights by this operator :: More flights under this callsign
Pilot: Nick L. (7253)
Aircraft: AÉROSPATIALE-BAC CONCORDE
(CONC)
More flights by this aircraft type
Origin: KPDX Portland Intl
United States
Destination: KRNO Reno/Tahoe Intl
United States
More flights between these airports :: More routes between these airports
Route: PTLD1 PAWLI BAARB FMG
File this flight plan on PilotEdge
Remarks:
Altitude:
(Current/Filed)
37,000ft
Speed:
(Current/Filed)
490kts
Departed: 14-Mar-21 05:36 PM
Arrived: 14-Mar-21 06:36 PM
Distance/Time
Traveled:
386nm/1:00
Distance/Time
To Go:
Arrived

Flight Plot

Page will automatically refresh every two minutes.

Flight plan parsing failed; only flown route is shown


Map Options




Map Legend


Flown Route
Filed Route
Departure Airport
Arrival Airport
Navaid (VOR, NDB)
Fix

Horizontal Profiles

Position Reports

Time Latitude Longitude Heading Altitude Ground
Speed
14-Mar-21 17:05 45.582092 -122.580098 27 35ft 0kts
14-Mar-21 17:06 45.582092 -122.580098 27 35ft 0kts
14-Mar-21 17:07 45.582092 -122.580098 27 35ft 0kts
14-Mar-21 17:08 45.582092 -122.580098 27 35ft 0kts
14-Mar-21 17:09 45.582091 -122.580099 27 35ft 0kts
14-Mar-21 17:10 45.582092 -122.580099 27 35ft 0kts
14-Mar-21 17:11 45.582092 -122.580098 27 35ft 0kts
14-Mar-21 17:12 45.582092 -122.580098 27 35ft 0kts
14-Mar-21 17:13 45.582092 -122.580098 27 35ft 0kts
14-Mar-21 17:14 45.582092 -122.580098 27 35ft 0kts
14-Mar-21 17:15 45.582092 -122.580098 27 35ft 0kts
14-Mar-21 17:16 45.582092 -122.580098 27 35ft 0kts
14-Mar-21 17:17 45.582092 -122.580098 27 35ft 0kts
14-Mar-21 17:18 45.582092 -122.580098 27 35ft 0kts
14-Mar-21 17:19 45.582092 -122.580098 27 35ft 0kts
14-Mar-21 17:20 45.582092 -122.580098 27 35ft 0kts
14-Mar-21 17:21 45.582092 -122.580098 27 35ft 0kts
14-Mar-21 17:22 45.582092 -122.580098 27 35ft 0kts
14-Mar-21 17:23 45.582092 -122.580098 27 35ft 0kts
14-Mar-21 17:24 45.582092 -122.580098 27 35ft 0kts
14-Mar-21 17:25 45.582092 -122.580098 27 35ft 0kts
14-Mar-21 17:26 45.582092 -122.580098 27 35ft 0kts
14-Mar-21 17:27 45.582092 -122.580098 27 35ft 0kts
14-Mar-21 17:28 45.581969 -122.580193 27 35ft 1kts
14-Mar-21 17:29 45.581419 -122.580254 337 34ft 2kts
14-Mar-21 17:30 45.581086 -122.579806 298 34ft 0kts
14-Mar-21 17:31 45.581086 -122.579807 298 34ft 0kts
14-Mar-21 17:32 45.581530 -122.580931 298 34ft 5kts
14-Mar-21 17:33 45.581620 -122.583129 210 32ft 0kts
14-Mar-21 17:34 45.581447 -122.583292 214 32ft 3kts
14-Mar-21 17:35 45.586207 -122.598498 298 35ft 196kts
14-Mar-21 17:36 45.616350 -122.680385 297 3560ft 245kts
14-Mar-21 17:37 45.582561 -122.740279 157 6003ft 267kts
14-Mar-21 17:38 45.519255 -122.680942 157 9551ft 277kts
14-Mar-21 17:39 45.439631 -122.622914 154 13183ft 397kts
14-Mar-21 17:40 45.333983 -122.540848 155 14951ft 413kts
14-Mar-21 17:41 45.236989 -122.465330 157 19148ft 414kts
14-Mar-21 17:42 45.130866 -122.383311 155 24283ft 437kts
14-Mar-21 17:43 45.018595 -122.296628 156 29348ft 473kts
14-Mar-21 17:44 44.896554 -122.202802 156 34420ft 508kts
14-Mar-21 17:45 44.767738 -122.104273 155 36903ft 522kts
14-Mar-21 17:46 44.638549 -122.006017 155 36964ft 517kts
14-Mar-21 17:47 44.510350 -121.909028 155 36899ft 514kts
14-Mar-21 17:48 44.382187 -121.812582 155 36906ft 514kts
14-Mar-21 17:49 44.253432 -121.716156 155 36912ft 515kts
14-Mar-21 17:50 44.124537 -121.620132 155 36910ft 514kts
14-Mar-21 17:51 43.995852 -121.524721 155 36910ft 514kts
14-Mar-21 17:52 43.867239 -121.429839 155 36923ft 515kts
14-Mar-21 17:53 43.738455 -121.335320 156 36930ft 515kts
14-Mar-21 17:54 43.608832 -121.240642 156 36942ft 515kts
14-Mar-21 17:55 43.479538 -121.146664 156 36939ft 515kts
14-Mar-21 17:56 43.349890 -121.052893 156 36934ft 514kts
14-Mar-21 17:57 43.220124 -120.959501 156 36929ft 515kts
14-Mar-21 17:58 43.084341 -120.891364 166 36932ft 508kts
14-Mar-21 17:59 42.946193 -120.833747 167 36936ft 509kts
14-Mar-21 18:00 42.809008 -120.777038 167 36945ft 509kts
14-Mar-21 18:01 42.671716 -120.720544 167 36935ft 509kts
14-Mar-21 18:02 42.533813 -120.664103 167 36940ft 509kts
14-Mar-21 18:03 42.395753 -120.607819 167 36951ft 509kts
14-Mar-21 18:04 42.258050 -120.551966 167 36950ft 509kts
14-Mar-21 18:05 42.119549 -120.496036 167 36949ft 509kts
14-Mar-21 18:06 41.981307 -120.440436 167 36947ft 509kts
14-Mar-21 18:07 41.842930 -120.385089 167 36964ft 510kts
14-Mar-21 18:08 41.705025 -120.330135 168 36959ft 508kts
14-Mar-21 18:09 41.566732 -120.275290 168 36959ft 509kts
14-Mar-21 18:10 41.427663 -120.220369 168 36958ft 510kts
14-Mar-21 18:11 41.288721 -120.165762 168 36957ft 511kts
14-Mar-21 18:12 41.148889 -120.112322 172 36961ft 510kts
14-Mar-21 18:13 41.007195 -120.071489 172 36954ft 510kts
14-Mar-21 18:14 40.865722 -120.031063 172 35993ft 509kts
14-Mar-21 18:15 40.725121 -119.991103 173 33821ft 510kts
14-Mar-21 18:16 40.584136 -119.951225 172 31618ft 503kts
14-Mar-21 18:17 40.446669 -119.912466 172 29422ft 491kts
14-Mar-21 18:18 40.312534 -119.874822 172 27217ft 478kts
14-Mar-21 18:19 40.180869 -119.837999 172 25485ft 468kts
14-Mar-21 18:20 40.052762 -119.802327 172 22789ft 453kts
14-Mar-21 18:21 39.928433 -119.767831 172 18478ft 436kts
14-Mar-21 18:22 39.811186 -119.735414 172 14862ft 408kts
14-Mar-21 18:23 39.707295 -119.697346 142 12597ft 367kts
14-Mar-21 18:24 39.710684 -119.584439 25 10935ft 318kts
14-Mar-21 18:25 39.797843 -119.566063 3 9975ft 310kts
14-Mar-21 18:26 39.884766 -119.566691 315 10123ft 297kts
14-Mar-21 18:28 39.898706 -119.658793 254 9959ft 233kts
14-Mar-21 18:29 39.882761 -119.742123 224 8505ft 227kts
14-Mar-21 18:30 39.823212 -119.768198 182 8724ft 232kts
14-Mar-21 18:31 39.757846 -119.768415 182 8719ft 231kts
14-Mar-21 18:32 39.697320 -119.768623 182 8159ft 203kts
14-Mar-21 18:33 39.639541 -119.768937 180 7069ft 208kts
14-Mar-21 18:34 39.581980 -119.769084 181 5902ft 205kts
14-Mar-21 18:35 39.524750 -119.769122 180 4749ft 201kts
14-Mar-21 18:36 39.489569 -119.769355 199 4416ft 16kts
14-Mar-21 18:37 39.489921 -119.771500 6 4416ft 18kts
14-Mar-21 18:38 39.496290 -119.771547 1 4413ft 20kts
14-Mar-21 18:39 39.501837 -119.771509 358 4417ft 17kts
14-Mar-21 18:40 39.504439 -119.772270 318 4420ft 0kts
14-Mar-21 18:41 39.504439 -119.772270 318 4420ft 0kts

Navigation Log

Ident Type
Flight plan parsing failed, navigation log unavailable